Time;durP1;ratioP1;P1;durP2;ratioP2;P2;SDS_P1;SDS_P2;PMS_P1;PMS_P2;Temp;Humidity;BMP_temperature;BMP_pressure;BME280_temperature;BME280_humidity;BME280_pressure;Samples;Min_cycle;Max_cycle;Signal;HPM_P1;HPM_P2
2022/08/13 00:01:49;;;;;;;6.00;2.05;;;20.90;53.90;;;;;;5013781;28;20612;-70
2022/08/13 00:04:15;;;;;;;5.32;1.70;;;21.00;53.70;;;;;;5022908;28;20068;-67
2022/08/13 00:09:09;;;;;;;2.13;1.40;;;20.80;53.60;;;;;;5014218;28;20037;-68
2022/08/13 00:14:24;;;;;;;4.20;1.67;;;20.60;54.40;;;;;;5041399;28;20033;-68
2022/08/13 00:16:50;;;;;;;4.93;1.80;;;20.50;54.90;;;;;;5020725;28;20127;-70
2022/08/13 00:19:16;;;;;;;2.92;1.50;;;20.50;55.20;;;;;;5003282;28;20050;-68
2022/08/13 00:21:42;;;;;;;2.72;1.42;;;20.50;55.40;;;;;;5000770;28;20045;-67
2022/08/13 00:24:08;;;;;;;4.95;1.50;;;20.50;55.00;;;;;;4992348;28;20518;-68
2022/08/13 00:26:33;;;;;;;6.25;1.80;;;20.50;55.20;;;;;;4977032;28;20046;-70
2022/08/13 00:29:00;;;;;;;5.43;1.90;;;20.50;55.00;;;;;;5015919;28;20087;-68
2022/08/13 00:31:26;;;;;;;7.40;1.60;;;20.50;55.20;;;;;;5007158;28;20475;-69
2022/08/13 00:33:53;;;;;;;6.10;1.50;;;20.40;55.20;;;;;;5006893;28;20057;-68
2022/08/13 00:36:20;;;;;;;6.55;1.50;;;20.50;55.10;;;;;;5014291;28;20128;-68
2022/08/13 00:38:46;;;;;;;3.42;1.63;;;20.50;55.00;;;;;;5020944;28;20720;-68
2022/08/13 00:41:37;;;;;;;6.25;1.40;;;20.50;54.30;;;;;;5012437;28;20544;-68
2022/08/13 00:43:58;;;;;;;4.55;2.00;;;20.50;54.60;;;;;;5013392;28;20045;-70
2022/08/13 00:46:24;;;;;;;5.90;1.85;;;20.40;54.70;;;;;;5006253;28;20054;-68
2022/08/13 00:48:50;;;;;;;3.50;1.73;;;20.30;55.60;;;;;;5003058;28;20049;-69
2022/08/13 00:51:16;;;;;;;3.92;1.70;;;20.30;55.50;;;;;;4992626;28;20183;-70
2022/08/13 00:53:43;;;;;;;3.70;1.75;;;20.30;55.60;;;;;;5019372;28;20049;-69
2022/08/13 00:56:09;;;;;;;5.53;1.67;;;20.40;55.90;;;;;;4991991;28;20191;-69
2022/08/13 00:58:35;;;;;;;3.40;1.88;;;20.30;55.40;;;;;;5042989;28;20057;-69
2022/08/13 01:01:02;;;;;;;6.03;1.65;;;20.20;55.30;;;;;;5010539;28;20045;-68
2022/08/13 01:03:29;;;;;;;3.92;1.75;;;20.20;55.20;;;;;;4993859;28;20037;-69
2022/08/13 01:05:58;;;;;;;3.47;1.63;;;20.20;55.40;;;;;;5026543;28;20056;-68
2022/08/13 01:08:24;;;;;;;3.00;1.85;;;20.10;55.70;;;;;;4993846;28;20041;-69
2022/08/13 01:10:50;;;;;;;5.32;1.75;;;20.10;55.90;;;;;;5015933;28;20060;-69
2022/08/13 01:13:17;;;;;;;4.15;1.75;;;20.10;55.90;;;;;;5024758;28;20544;-69
2022/08/13 01:15:44;;;;;;;5.93;1.60;;;20.10;55.90;;;;;;5022155;28;20053;-69
2022/08/13 01:18:17;;;;;;;3.63;1.70;;;20.20;55.90;;;;;;5026668;28;20046;-68
2022/08/13 01:20:47;;;;;;;5.68;1.52;;;20.20;56.10;;;;;;5009546;28;20144;-68
2022/08/13 01:23:16;;;;;;;3.25;1.85;;;20.10;56.30;;;;;;5017214;28;20046;-68
2022/08/13 01:25:44;;;;;;;3.90;1.85;;;20.00;57.00;;;;;;5021261;28;20694;-68
2022/08/13 01:28:10;;;;;;;4.88;2.05;;;20.00;57.00;;;;;;5006102;28;20129;-68
2022/08/13 01:30:36;;;;;;;5.30;1.90;;;20.00;57.10;;;;;;5007321;28;20148;-68
2022/08/13 01:33:02;;;;;;;3.60;1.70;;;19.90;57.20;;;;;;4999002;28;20124;-68
2022/08/13 01:35:28;;;;;;;4.07;1.85;;;19.90;58.10;;;;;;5006592;28;20880;-68
2022/08/13 01:37:54;;;;;;;4.20;2.10;;;19.90;58.30;;;;;;5007805;28;20052;-68
2022/08/13 01:40:20;;;;;;;2.15;1.40;;;19.90;57.90;;;;;;5010717;28;20051;-69
2022/08/13 01:42:48;;;;;;;4.43;1.92;;;19.90;58.40;;;;;;5006093;28;20153;-68
2022/08/13 01:45:14;;;;;;;3.07;1.80;;;19.80;59.20;;;;;;4994724;28;20046;-68
2022/08/13 01:50:31;;;;;;;3.25;2.03;;;19.80;59.30;;;;;;5009119;28;20049;-66
2022/08/13 01:53:03;;;;;;;4.13;1.58;;;19.80;59.40;;;;;;5006045;28;20042;-68
2022/08/13 01:55:40;;;;;;;6.15;2.22;;;19.70;59.90;;;;;;5007649;28;20050;-67
2022/08/13 01:58:11;;;;;;;3.33;1.80;;;19.70;60.10;;;;;;4990686;28;20056;-68
2022/08/13 02:00:38;;;;;;;3.17;1.70;;;19.80;59.90;;;;;;5013952;28;20471;-67
2022/08/13 02:03:09;;;;;;;4.13;2.08;;;19.80;60.10;;;;;;4996350;28;20668;-67
2022/08/13 02:05:38;;;;;;;5.38;2.08;;;19.80;59.60;;;;;;4990686;28;20072;-67
2022/08/13 02:08:07;;;;;;;6.43;1.60;;;19.80;60.40;;;;;;5009284;28;20741;-67
2022/08/13 02:10:37;;;;;;;3.78;1.40;;;19.70;60.30;;;;;;5011391;28;20058;-68
2022/08/13 02:13:04;;;;;;;5.05;1.63;;;19.70;60.30;;;;;;5011459;28;20065;-66
2022/08/13 02:15:30;;;;;;;5.32;1.67;;;19.80;60.40;;;;;;5005773;28;20136;-67
2022/08/13 02:17:56;;;;;;;5.20;1.80;;;19.70;60.50;;;;;;5040330;28;20152;-67
2022/08/13 02:20:22;;;;;;;4.13;2.05;;;19.60;60.80;;;;;;5008319;28;20045;-67
2022/08/13 02:22:48;;;;;;;6.90;1.80;;;19.50;60.90;;;;;;4995787;28;20052;-66
2022/08/13 02:25:15;;;;;;;4.70;1.90;;;19.50;60.90;;;;;;5006312;28;20045;-68
2022/08/13 02:27:41;;;;;;;6.80;1.83;;;19.40;61.20;;;;;;5014630;28;20049;-67
2022/08/13 02:30:09;;;;;;;4.00;1.65;;;19.50;60.90;;;;;;5039956;28;20061;-68
2022/08/13 02:32:36;;;;;;;;;;;19.50;61.00;;;;;;5014386;28;20056;-67
2022/08/13 02:35:02;;;;;;;3.85;1.70;;;19.60;60.50;;;;;;5046746;28;19974;-68
2022/08/13 02:37:28;;;;;;;4.13;2.08;;;19.50;61.10;;;;;;4976240;28;20047;-67
2022/08/13 02:39:53;;;;;;;3.40;1.80;;;19.40;60.80;;;;;;5005705;28;20140;-67
2022/08/13 02:42:20;;;;;;;4.20;1.77;;;19.40;61.00;;;;;;5034988;28;20068;-67
2022/08/13 02:44:47;;;;;;;4.10;1.92;;;19.40;60.90;;;;;;5018608;28;20041;-67
2022/08/13 02:47:16;;;;;;;5.95;2.05;;;19.30;61.00;;;;;;4999297;28;20046;-67
2022/08/13 02:49:41;;;;;;;;;;;19.20;61.70;;;;;;4997303;28;20049;-67
2022/08/13 02:52:10;;;;;;;3.42;1.85;;;19.20;61.80;;;;;;5008984;28;19929;-66
2022/08/13 02:54:42;;;;;;;6.78;1.70;;;19.20;61.90;;;;;;5005553;28;20042;-67
2022/08/13 02:57:09;;;;;;;7.00;2.10;;;19.20;62.10;;;;;;4993776;28;20072;-67
2022/08/13 02:59:36;;;;;;;3.53;1.80;;;19.20;62.00;;;;;;4989130;28;20045;-68
2022/08/13 03:02:04;;;;;;;8.38;2.13;;;19.20;61.60;;;;;;4999242;28;20115;-67
2022/08/13 03:04:30;;;;;;;5.13;1.90;;;19.30;61.40;;;;;;5012027;28;20049;-67
2022/08/13 03:06:56;;;;;;;4.72;1.80;;;19.20;61.70;;;;;;5008892;28;20034;-67
2022/08/13 03:09:22;;;;;;;7.28;2.03;;;19.20;61.70;;;;;;4988393;28;20051;-66
2022/08/13 03:11:49;;;;;;;9.73;2.10;;;19.20;61.70;;;;;;5010034;28;20099;-68
2022/08/13 03:14:15;;;;;;;8.82;1.70;;;19.20;61.50;;;;;;5005879;28;20041;-67
2022/08/13 03:16:40;;;;;;;7.97;1.85;;;19.20;61.60;;;;;;5033179;28;20056;-67
2022/08/13 03:19:06;;;;;;;4.78;2.10;;;19.20;62.50;;;;;;5010709;28;20119;-67
2022/08/13 03:21:41;;;;;;;3.80;1.90;;;19.10;62.20;;;;;;5009467;28;20085;-67
2022/08/13 03:24:17;;;;;;;5.25;1.92;;;19.10;62.70;;;;;;5013138;28;20136;-67
2022/08/13 03:26:44;;;;;;;6.88;1.75;;;18.90;63.00;;;;;;5016874;28;20188;-67
2022/08/13 03:29:10;;;;;;;5.28;1.83;;;18.80;63.10;;;;;;5008579;28;20144;-67
2022/08/13 03:31:36;;;;;;;4.03;2.03;;;18.70;63.10;;;;;;5007805;28;20140;-67
2022/08/13 03:34:03;;;;;;;3.22;1.75;;;18.70;63.00;;;;;;5005883;28;20391;-67
2022/08/13 03:36:30;;;;;;;5.40;1.70;;;18.70;62.80;;;;;;4987201;28;20057;-67
2022/08/13 03:38:56;;;;;;;6.38;2.85;;;18.70;62.50;;;;;;5037724;28;20045;-67
2022/08/13 03:41:22;;;;;;;6.53;2.13;;;18.80;62.40;;;;;;5009375;28;20050;-68
2022/08/13 03:43:48;;;;;;;5.28;1.83;;;18.70;62.80;;;;;;4991744;28;20042;-67
2022/08/13 03:46:16;;;;;;;5.25;2.33;;;18.70;62.40;;;;;;5020291;28;20072;-67
2022/08/13 03:48:43;;;;;;;2.97;1.77;;;18.80;62.40;;;;;;4992304;28;20062;-68
2022/08/13 03:51:09;;;;;;;3.95;1.85;;;18.90;62.10;;;;;;5016318;28;20049;-67
2022/08/13 03:53:35;;;;;;;2.85;1.83;;;18.90;61.80;;;;;;5012017;28;20046;-67
2022/08/13 03:56:03;;;;;;;5.78;2.42;;;18.90;61.90;;;;;;4982155;28;20056;-67
2022/08/13 03:58:29;;;;;;;7.40;1.90;;;18.90;61.80;;;;;;5005707;28;20471;-67
2022/08/13 04:00:55;;;;;;;3.92;2.00;;;18.80;61.90;;;;;;4998840;28;20069;-67
2022/08/13 04:03:22;;;;;;;4.30;1.90;;;18.90;62.10;;;;;;5015091;28;20485;-66
2022/08/13 04:05:57;;;;;;;6.05;2.38;;;18.90;61.80;;;;;;5002436;28;20107;-66
2022/08/13 04:08:24;;;;;;;5.65;2.08;;;18.80;62.20;;;;;;5024898;28;20124;-69
2022/08/13 04:10:50;;;;;;;5.55;2.10;;;18.90;62.30;;;;;;5023142;28;20052;-66
2022/08/13 04:13:16;;;;;;;5.38;2.10;;;18.80;62.00;;;;;;5020742;28;20053;-68
2022/08/13 04:15:46;;;;;;;5.45;1.80;;;18.70;62.70;;;;;;5007516;28;20056;-67
2022/08/13 04:18:15;;;;;;;9.07;2.35;;;18.70;62.90;;;;;;5017149;28;20042;-67
2022/08/13 04:20:49;;;;;;;5.38;2.15;;;18.60;63.90;;;;;;5008645;28;20494;-67
2022/08/13 04:23:18;;;;;;;3.45;2.10;;;18.50;64.60;;;;;;5019591;28;20049;-68
2022/08/13 04:25:44;;;;;;;4.00;2.20;;;18.40;65.70;;;;;;5014601;28;20129;-67
2022/08/13 04:28:14;;;;;;;6.05;2.20;;;18.40;65.90;;;;;;5014097;28;20156;-68
2022/08/13 04:30:41;;;;;;;2.92;1.90;;;18.40;65.70;;;;;;5029095;28;20061;-67
2022/08/13 04:33:14;;;;;;;5.60;2.00;;;18.50;66.30;;;;;;5012115;28;20053;-68
2022/08/13 04:35:41;;;;;;;6.25;2.15;;;18.50;66.10;;;;;;5015566;28;20053;-67
2022/08/13 04:38:07;;;;;;;5.13;2.17;;;18.50;66.00;;;;;;5012664;28;20522;-67
2022/08/13 04:40:37;;;;;;;5.68;1.85;;;18.50;65.80;;;;;;5008550;28;20046;-67
2022/08/13 04:43:03;;;;;;;5.20;2.15;;;18.50;65.80;;;;;;5010984;28;20049;-67
2022/08/13 04:45:30;;;;;;;7.43;2.28;;;18.50;66.20;;;;;;5016931;28;20054;-67
2022/08/13 04:47:58;;;;;;;4.55;2.30;;;18.40;67.70;;;;;;5001399;28;20081;-66
2022/08/13 04:50:25;;;;;;;3.63;2.00;;;18.40;67.90;;;;;;5023464;28;20546;-66
2022/08/13 04:52:52;;;;;;;5.63;1.95;;;18.50;67.50;;;;;;5015937;28;20053;-67
2022/08/13 04:55:17;;;;;;;3.53;1.92;;;18.50;67.60;;;;;;5013575;28;20108;-66
2022/08/13 04:57:43;;;;;;;4.28;2.20;;;18.50;67.90;;;;;;5018802;28;20046;-68
2022/08/13 05:00:09;;;;;;;11.00;2.50;;;18.50;67.90;;;;;;5046080;28;20353;-68
2022/08/13 05:02:39;;;;;;;4.95;2.30;;;18.50;67.80;;;;;;5014831;28;20530;-69
2022/08/13 05:05:06;;;;;;;4.63;2.10;;;18.50;68.00;;;;;;5012722;28;20424;-67
2022/08/13 05:07:31;;;;;;;6.63;2.35;;;18.60;67.30;;;;;;5005105;28;20072;-66
2022/08/13 05:09:57;;;;;;;7.03;2.40;;;18.60;67.80;;;;;;5023363;28;20041;-67
2022/08/13 05:12:23;;;;;;;5.28;2.15;;;18.60;67.70;;;;;;5014540;28;20050;-67
2022/08/13 05:14:49;;;;;;;6.55;1.98;;;18.60;68.00;;;;;;5021415;28;20141;-67
2022/08/13 05:17:15;;;;;;;4.95;2.17;;;18.70;68.20;;;;;;5012238;28;20129;-67
2022/08/13 05:19:41;;;;;;;4.93;2.33;;;18.70;68.00;;;;;;5043102;28;20132;-67
2022/08/13 05:22:07;;;;;;;5.20;2.20;;;18.80;68.10;;;;;;5019648;28;20053;-67
2022/08/13 05:24:39;;;;;;;7.57;2.70;;;18.80;67.40;;;;;;5011394;28;20626;-67
2022/08/13 05:27:12;;;;;;;3.22;2.00;;;18.70;67.40;;;;;;5009905;28;20104;-67
2022/08/13 05:29:44;;;;;;;5.82;2.30;;;18.70;67.30;;;;;;4999483;28;20177;-67
2022/08/13 05:32:18;;;;;;;6.15;2.30;;;18.80;66.60;;;;;;5010448;28;20066;-67
2022/08/13 05:35:24;;;;;;;4.47;2.05;;;18.80;66.20;;;;;;5016087;28;20050;-67
2022/08/13 05:37:55;;;;;;;7.07;2.60;;;18.90;65.80;;;;;;4966480;28;20524;-67
2022/08/13 05:40:47;;;;;;;3.58;1.90;;;19.00;65.50;;;;;;4955448;28;20217;-66
2022/08/13 05:43:17;;;;;;;5.07;2.15;;;19.00;65.70;;;;;;5006910;28;20049;-66
2022/08/13 05:46:03;;;;;;;7.47;2.88;;;19.00;64.90;;;;;;4994957;28;20054;-68
2022/08/13 05:48:39;;;;;;;4.85;2.10;;;19.10;64.60;;;;;;5000501;28;20054;-68
2022/08/13 05:51:13;;;;;;;2.80;1.92;;;19.20;64.50;;;;;;4990611;28;20045;-68
2022/08/13 05:53:44;;;;;;;6.68;2.25;;;19.20;64.10;;;;;;5010319;28;20522;-68
2022/08/13 05:56:11;;;;;;;7.40;2.00;;;19.30;64.20;;;;;;5014607;28;20056;-68
2022/08/13 05:58:39;;;;;;;3.97;2.10;;;19.30;63.30;;;;;;5008145;28;20045;-68
2022/08/13 06:03:50;;;;;;;5.25;2.00;;;19.40;62.80;;;;;;5054652;28;20450;-69
2022/08/13 06:06:20;;;;;;;4.43;1.98;;;19.40;62.70;;;;;;5009749;28;20081;-68
2022/08/13 06:08:48;;;;;;;7.35;2.20;;;19.50;62.50;;;;;;4998243;28;20046;-68
2022/08/13 06:11:16;;;;;;;5.13;2.17;;;19.50;62.40;;;;;;4999892;28;20049;-67
2022/08/13 06:13:45;;;;;;;5.05;2.30;;;19.60;62.20;;;;;;4998643;28;20438;-70
2022/08/13 06:16:17;;;;;;;5.82;2.40;;;19.70;62.00;;;;;;5021521;28;20053;-70
2022/08/13 06:18:44;;;;;;;6.13;2.90;;;19.70;62.10;;;;;;4992656;28;20358;-72
2022/08/13 06:21:11;;;;;;;4.70;2.80;;;19.70;62.20;;;;;;5015443;28;20157;-69
2022/08/13 06:23:42;;;;;;;6.53;2.70;;;19.80;62.20;;;;;;5024736;28;20391;-70
2022/08/13 06:26:11;;;;;;;5.65;2.80;;;19.80;62.00;;;;;;5009838;28;20128;-70
2022/08/13 06:28:47;;;;;;;5.88;2.50;;;19.90;62.10;;;;;;5015494;28;20051;-69
2022/08/13 06:31:16;;;;;;;3.50;2.47;;;20.00;62.20;;;;;;5018721;28;20049;-69
2022/08/13 06:33:42;;;;;;;3.42;2.25;;;20.10;62.40;;;;;;5014063;28;20054;-69
2022/08/13 06:36:10;;;;;;;3.60;2.25;;;20.10;62.60;;;;;;5019367;28;20073;-69
2022/08/13 06:38:50;;;;;;;4.32;2.10;;;20.20;62.80;;;;;;4991508;28;20037;-69
2022/08/13 06:41:19;;;;;;;6.65;2.70;;;20.30;62.50;;;;;;5007750;28;20053;-70
2022/08/13 06:43:53;;;;;;;4.97;2.40;;;20.30;62.20;;;;;;5008444;28;20042;-69
2022/08/13 06:46:22;;;;;;;6.10;2.40;;;20.40;62.70;;;;;;5008506;28;20071;-71
2022/08/13 06:48:48;;;;;;;4.15;2.25;;;20.50;62.10;;;;;;5038479;28;20044;-68
2022/08/13 06:51:14;;;;;;;6.13;2.42;;;20.50;61.90;;;;;;5014976;28;20073;-69
2022/08/13 06:53:42;;;;;;;8.10;2.13;;;20.60;61.80;;;;;;5008644;28;20088;-69
2022/08/13 06:56:15;;;;;;;5.43;2.15;;;20.60;61.70;;;;;;5009544;28;20427;-68
2022/08/13 06:58:43;;;;;;;6.53;2.10;;;20.70;61.80;;;;;;4996234;28;20045;-69
2022/08/13 07:01:08;;;;;;;5.38;2.03;;;20.80;61.70;;;;;;5013230;28;20060;-69
2022/08/13 07:03:34;;;;;;;8.15;2.30;;;20.80;61.60;;;;;;4998715;28;20161;-70
2022/08/13 07:06:00;;;;;;;5.22;2.25;;;20.90;61.40;;;;;;5007655;28;20108;-69
2022/08/13 07:08:28;;;;;;;8.02;2.20;;;20.90;60.80;;;;;;5014435;28;20049;-70
2022/08/13 07:13:40;;;;;;;3.97;2.30;;;21.10;60.00;;;;;;5018042;28;20057;-69
2022/08/13 07:16:09;;;;;;;10.32;2.58;;;21.20;60.10;;;;;;5019875;28;20267;-68
2022/08/13 07:18:35;;;;;;;5.30;2.42;;;21.20;59.70;;;;;;5019304;28;20137;-70
2022/08/13 07:21:02;;;;;;;9.48;2.83;;;21.30;59.90;;;;;;5002908;28;20116;-67
2022/08/13 07:23:28;;;;;;;10.55;2.70;;;21.40;60.00;;;;;;4998813;28;20042;-69
2022/08/13 07:25:57;;;;;;;7.72;2.55;;;21.50;60.00;;;;;;4998531;28;20050;-69
2022/08/13 07:28:25;;;;;;;12.70;2.63;;;21.50;59.80;;;;;;4999224;28;20136;-69
2022/08/13 07:30:52;;;;;;;12.27;2.55;;;21.60;60.10;;;;;;5011774;28;20054;-69
2022/08/13 07:33:19;;;;;;;10.45;2.95;;;21.70;60.10;;;;;;5012306;28;20088;-68
2022/08/13 07:35:44;;;;;;;7.05;2.95;;;21.80;59.70;;;;;;5011307;28;20526;-68
2022/08/13 07:38:10;;;;;;;4.75;2.63;;;21.80;59.30;;;;;;5007639;28;20045;-69
2022/08/13 07:40:36;;;;;;;4.97;2.28;;;21.90;59.30;;;;;;5006030;28;20149;-64
2022/08/13 07:43:04;;;;;;;4.45;2.40;;;22.00;58.90;;;;;;5001720;28;20052;-64
2022/08/13 07:45:30;;;;;;;5.30;2.55;;;22.10;59.30;;;;;;5018457;28;20120;-65
2022/08/13 07:47:56;;;;;;;5.55;3.63;;;22.20;58.80;;;;;;5016937;28;20133;-63
2022/08/13 07:50:22;;;;;;;5.57;2.90;;;22.30;58.60;;;;;;5016593;28;20554;-63
2022/08/13 07:52:55;;;;;;;7.78;2.50;;;22.30;58.20;;;;;;5018021;28;20073;-62
2022/08/13 07:55:22;;;;;;;4.18;2.85;;;22.40;58.30;;;;;;5017429;28;20052;-64
2022/08/13 07:57:48;;;;;;;5.63;2.90;;;22.50;58.20;;;;;;4996978;28;20376;-63
2022/08/13 08:00:21;;;;;;;6.78;2.40;;;22.50;58.10;;;;;;4998336;28;20049;-63
2022/08/13 08:02:53;;;;;;;6.45;2.85;;;22.60;58.00;;;;;;5046732;28;20395;-63
2022/08/13 08:05:20;;;;;;;5.35;2.67;;;22.70;58.50;;;;;;5008072;28;20463;-63
2022/08/13 08:07:47;;;;;;;8.35;2.60;;;22.80;58.10;;;;;;5017161;28;20077;-64
2022/08/13 08:10:12;;;;;;;8.35;2.60;;;22.90;58.10;;;;;;4995043;28;20101;-64
2022/08/13 08:12:38;;;;;;;4.65;2.28;;;23.00;58.50;;;;;;5045603;28;20083;-65
2022/08/13 08:15:08;;;;;;;7.75;2.50;;;23.10;58.20;;;;;;5046615;28;20057;-64
2022/08/13 08:17:34;;;;;;;6.65;3.42;;;23.20;58.00;;;;;;5011336;28;20483;-64
2022/08/13 08:20:00;;;;;;;7.78;2.60;;;23.30;57.80;;;;;;5016761;28;20046;-64
2022/08/13 08:22:26;;;;;;;9.65;2.90;;;23.40;57.40;;;;;;5010893;28;20163;-65
2022/08/13 08:24:52;;;;;;;5.90;2.78;;;23.40;56.70;;;;;;5010884;28;20050;-65
2022/08/13 08:27:19;;;;;;;4.43;2.65;;;23.50;57.30;;;;;;5011634;28;20041;-64
2022/08/13 08:29:46;;;;;;;6.27;2.77;;;23.60;56.80;;;;;;5029185;28;20057;-65
2022/08/13 08:32:13;;;;;;;7.13;2.72;;;23.70;56.40;;;;;;4986798;28;20053;-62
2022/08/13 08:34:40;;;;;;;4.85;2.63;;;23.80;56.60;;;;;;5012879;28;20375;-65
2022/08/13 08:37:06;;;;;;;5.03;2.60;;;23.90;56.40;;;;;;5015583;28;20049;-64
2022/08/13 08:42:38;;;;;;;4.13;2.70;;;24.10;55.80;;;;;;5014208;28;20041;-64
2022/08/13 08:45:13;;;;;;;5.65;3.17;;;24.10;55.60;;;;;;5010570;28;20060;-65
2022/08/13 08:47:40;;;;;;;6.88;2.88;;;24.30;55.60;;;;;;5005150;28;20053;-65
2022/08/13 08:50:07;;;;;;;4.07;2.85;;;24.40;54.90;;;;;;5011960;28;20169;-64
2022/08/13 08:55:16;;;;;;;4.10;2.83;;;24.60;54.20;;;;;;5010282;28;20042;-63
2022/08/13 08:57:44;;;;;;;5.07;2.63;;;24.70;54.40;;;;;;4996423;28;20144;-64
2022/08/13 09:00:14;;;;;;;4.87;2.70;;;24.80;54.00;;;;;;5002438;28;20046;-63
2022/08/13 09:02:40;;;;;;;6.53;2.90;;;24.90;54.20;;;;;;5029394;28;20764;-65
2022/08/13 09:05:08;;;;;;;3.95;2.42;;;25.00;53.80;;;;;;5013370;28;20534;-63
2022/08/13 09:07:36;;;;;;;5.78;2.60;;;25.00;53.70;;;;;;4995739;28;20492;-64
2022/08/13 09:10:04;;;;;;;5.90;2.67;;;25.10;53.20;;;;;;5011425;28;20072;-63
2022/08/13 09:12:29;;;;;;;5.07;2.95;;;25.20;53.60;;;;;;5022584;28;20054;-64
2022/08/13 09:14:59;;;;;;;5.20;2.75;;;25.30;54.10;;;;;;5001735;28;20107;-65
2022/08/13 09:17:25;;;;;;;7.82;3.30;;;25.50;53.20;;;;;;5042510;28;20047;-63
2022/08/13 09:19:51;;;;;;;8.98;3.63;;;25.60;53.60;;;;;;5007350;28;20064;-64
2022/08/13 09:22:20;;;;;;;8.52;3.72;;;25.70;53.60;;;;;;5022207;28;20504;-64
2022/08/13 09:24:46;;;;;;;9.82;3.40;;;25.80;53.20;;;;;;5019263;28;20127;-63
2022/08/13 09:27:17;;;;;;;7.45;3.50;;;25.80;52.70;;;;;;5018315;28;20479;-64
2022/08/13 09:29:43;;;;;;;4.53;3.95;;;25.90;52.60;;;;;;4998293;28;20115;-65
2022/08/13 09:32:09;;;;;;;6.30;3.55;;;25.90;52.60;;;;;;5010878;28;20049;-63
2022/08/13 09:34:39;;;;;;;6.03;3.10;;;26.00;52.80;;;;;;4993723;28;20569;-63
2022/08/13 09:37:07;;;;;;;6.75;4.05;;;26.10;52.90;;;;;;5041627;28;20549;-62
2022/08/13 09:39:36;;;;;;;5.45;3.83;;;26.20;51.80;;;;;;4993885;28;20121;-66
2022/08/13 09:42:05;;;;;;;5.00;3.95;;;26.20;51.60;;;;;;5010028;28;20046;-63
2022/08/13 09:44:31;;;;;;;8.48;4.20;;;26.20;51.30;;;;;;5009636;28;20073;-64
2022/08/13 09:46:57;;;;;;;5.70;3.83;;;26.20;51.40;;;;;;5012465;28;20134;-63
2022/08/13 09:49:23;;;;;;;6.53;4.60;;;26.20;52.00;;;;;;5010294;28;20057;-64
2022/08/13 09:51:49;;;;;;;6.35;4.95;;;26.30;52.50;;;;;;5012311;28;20041;-64
2022/08/13 09:54:16;;;;;;;8.60;4.70;;;26.40;51.70;;;;;;5010117;28;20064;-65
2022/08/13 09:56:42;;;;;;;6.72;4.40;;;26.40;52.10;;;;;;5010610;28;20042;-68
2022/08/13 09:59:10;;;;;;;6.63;4.50;;;26.50;51.80;;;;;;4999288;28;20038;-68
2022/08/13 10:01:36;;;;;;;7.55;4.78;;;26.70;51.20;;;;;;5014997;28;20046;-67
2022/08/13 10:04:04;;;;;;;7.05;5.00;;;26.70;51.30;;;;;;5005402;28;20049;-68
2022/08/13 10:06:30;;;;;;;13.97;4.37;;;26.90;51.30;;;;;;4992646;28;20483;-68
2022/08/13 10:08:55;;;;;;;7.50;4.05;;;27.00;50.60;;;;;;5014341;28;20602;-68
2022/08/13 10:11:24;;;;;;;8.63;4.38;;;27.10;50.20;;;;;;5018942;28;20046;-69
2022/08/13 10:13:50;;;;;;;6.95;3.88;;;27.10;49.90;;;;;;5009896;28;20061;-67
2022/08/13 10:16:16;;;;;;;6.65;4.00;;;27.20;49.90;;;;;;5000745;28;20049;-67
2022/08/13 10:18:42;;;;;;;6.95;3.75;;;27.30;50.30;;;;;;5018747;28;20102;-68
2022/08/13 10:21:08;;;;;;;9.18;4.20;;;27.10;49.40;;;;;;5005373;28;20055;-68
2022/08/13 10:23:34;;;;;;;11.48;4.10;;;27.10;49.70;;;;;;5019971;28;20038;-68
2022/08/13 10:26:00;;;;;;;5.90;4.32;;;27.10;49.90;;;;;;5018015;28;20048;-67
2022/08/13 10:28:28;;;;;;;7.78;4.57;;;27.20;50.40;;;;;;5011377;28;20136;-68
2022/08/13 10:30:56;;;;;;;7.05;4.95;;;27.40;49.90;;;;;;4999799;28;20057;-68
2022/08/13 10:33:23;;;;;;;7.38;4.55;;;27.60;49.00;;;;;;5011501;28;20092;-68
2022/08/13 10:35:55;;;;;;;4.97;4.45;;;27.70;49.40;;;;;;4992586;28;20046;-69
2022/08/13 10:38:26;;;;;;;4.88;4.38;;;27.70;48.90;;;;;;5044517;28;20077;-70
2022/08/13 10:40:59;;;;;;;4.90;4.30;;;27.60;48.80;;;;;;5003496;28;20045;-67
2022/08/13 10:43:26;;;;;;;5.38;4.32;;;27.70;48.90;;;;;;5014552;28;20345;-67
2022/08/13 10:45:56;;;;;;;6.20;4.80;;;27.90;48.60;;;;;;5022748;28;20533;-68
2022/08/13 10:48:25;;;;;;;5.38;4.70;;;28.10;48.40;;;;;;5039699;28;20072;-68
2022/08/13 10:50:52;;;;;;;7.07;4.70;;;28.20;47.60;;;;;;5021700;28;20061;-68
2022/08/13 10:56:03;;;;;;;5.75;4.53;;;28.10;48.10;;;;;;5018682;28;20053;-68
2022/08/13 10:58:30;;;;;;;5.88;4.60;;;28.00;47.90;;;;;;5025459;28;20236;-68
2022/08/13 11:00:56;;;;;;;9.48;4.35;;;28.10;48.20;;;;;;5011091;28;20407;-69
2022/08/13 11:03:22;;;;;;;5.95;4.20;;;28.30;47.30;;;;;;5037771;28;20045;-68
2022/08/13 11:05:50;;;;;;;7.95;3.80;;;28.40;47.40;;;;;;5009000;28;20054;-68
2022/08/13 11:08:16;;;;;;;7.97;4.53;;;28.60;47.50;;;;;;5038804;28;20049;-69
2022/08/13 11:10:42;;;;;;;4.72;4.05;;;28.90;46.70;;;;;;5019874;28;20049;-68
2022/08/13 11:13:07;;;;;;;5.68;4.20;;;29.00;46.80;;;;;;5023262;28;20057;-69
2022/08/13 11:15:33;;;;;;;8.38;4.00;;;29.00;46.40;;;;;;5040190;28;20049;-69
2022/08/13 11:17:59;;;;;;;8.98;4.05;;;28.80;46.20;;;;;;5002784;28;20046;-68
2022/08/13 11:20:27;;;;;;;7.10;4.20;;;28.70;46.40;;;;;;5017215;28;20077;-69
2022/08/13 11:22:54;;;;;;;7.53;4.65;;;28.50;46.40;;;;;;5010828;28;20060;-68
2022/08/13 11:25:21;;;;;;;7.05;4.93;;;28.40;46.70;;;;;;4994846;28;20054;-68
2022/08/13 11:27:46;;;;;;;7.47;4.68;;;28.30;46.60;;;;;;5014468;28;20057;-67
2022/08/13 11:30:14;;;;;;;5.55;4.80;;;28.40;47.30;;;;;;5011489;28;20065;-68
2022/08/13 11:32:40;;;;;;;8.70;4.45;;;28.40;46.70;;;;;;5014549;28;20050;-68
2022/08/13 11:35:06;;;;;;;6.15;4.35;;;28.40;47.00;;;;;;5014928;28;20060;-68
2022/08/13 11:37:35;;;;;;;6.93;4.22;;;28.60;47.50;;;;;;5008542;28;20042;-69
2022/08/13 11:40:03;;;;;;;7.50;4.32;;;28.90;48.00;;;;;;5059783;28;20045;-68
2022/08/13 11:42:32;;;;;;;;;;;29.10;47.10;;;;;;5010234;28;20046;-68
2022/08/13 11:44:57;;;;;;;6.95;4.53;;;29.10;46.10;;;;;;5012193;28;19917;-67
2022/08/13 11:47:24;;;;;;;7.03;4.20;;;29.00;46.10;;;;;;5011730;28;20065;-67
2022/08/13 11:49:50;;;;;;;14.45;5.03;;;29.20;46.20;;;;;;5026450;28;20053;-67
2022/08/13 11:52:15;;;;;;;5.88;4.70;;;29.30;45.60;;;;;;5008274;28;20053;-68
2022/08/13 11:54:41;;;;;;;6.50;4.10;;;29.10;45.60;;;;;;5042039;28;20049;-67
2022/08/13 11:57:07;;;;;;;5.78;3.90;;;29.00;45.70;;;;;;5014185;28;20097;-69
2022/08/13 11:59:33;;;;;;;8.18;4.22;;;28.90;46.30;;;;;;4969337;28;20124;-67
2022/08/13 12:01:59;;;;;;;5.07;3.88;;;28.90;47.00;;;;;;5022103;28;20057;-67
2022/08/13 12:04:27;;;;;;;4.22;3.40;;;29.20;45.40;;;;;;5017756;28;20046;-68
2022/08/13 12:06:53;;;;;;;9.25;3.80;;;29.50;44.50;;;;;;5013477;28;20087;-67
2022/08/13 12:09:19;;;;;;;5.13;3.88;;;29.60;43.20;;;;;;5014479;28;20439;-66
2022/08/13 12:11:45;;;;;;;7.93;4.15;;;29.50;43.30;;;;;;4996789;28;20049;-67
2022/08/13 12:14:14;;;;;;;5.68;3.67;;;29.20;43.00;;;;;;5012855;28;20379;-66
2022/08/13 12:16:39;;;;;;;6.38;4.10;;;29.10;43.30;;;;;;5016183;28;20136;-66
2022/08/13 12:19:05;;;;;;;4.72;3.88;;;29.00;44.00;;;;;;4995231;28;20125;-66
2022/08/13 12:21:32;;;;;;;6.72;4.57;;;28.90;44.40;;;;;;5014072;28;20053;-66
2022/08/13 12:23:58;;;;;;;8.13;3.90;;;28.80;44.70;;;;;;5013517;28;20112;-67
2022/08/13 12:26:24;;;;;;;6.88;4.47;;;28.70;45.30;;;;;;5017819;28;20054;-66
2022/08/13 12:28:53;;;;;;;8.18;4.82;;;28.60;45.40;;;;;;4994674;28;20145;-68
2022/08/13 12:31:20;;;;;;;5.95;4.57;;;28.60;45.20;;;;;;5011704;28;20470;-67
2022/08/13 12:33:46;;;;;;;5.57;4.32;;;28.70;45.20;;;;;;5014401;28;20046;-67
2022/08/13 12:36:12;;;;;;;8.75;4.53;;;28.90;45.10;;;;;;5027670;28;20049;-67
2022/08/13 12:38:38;;;;;;;6.55;5.00;;;29.00;45.50;;;;;;5024214;28;20037;-76
2022/08/13 12:41:03;;;;;;;8.90;4.28;;;29.00;44.40;;;;;;5010302;28;20466;-73
2022/08/13 12:43:30;;;;;;;8.85;4.32;;;28.90;44.70;;;;;;5025945;28;20399;-73
2022/08/13 12:45:59;;;;;;;6.93;4.80;;;29.00;44.60;;;;;;5008829;28;20077;-72
2022/08/13 12:48:28;;;;;;;4.47;3.97;;;29.10;44.50;;;;;;5014185;28;20053;-72
2022/08/13 12:50:54;;;;;;;5.63;4.63;;;29.30;44.20;;;;;;5013902;28;20045;-73
2022/08/13 12:53:20;;;;;;;6.45;4.40;;;29.70;44.50;;;;;;5015371;28;20080;-72
2022/08/13 12:55:48;;;;;;;7.13;4.97;;;30.00;43.90;;;;;;4999908;28;20049;-73
2022/08/13 12:58:15;;;;;;;6.22;4.70;;;30.00;43.30;;;;;;5019511;28;20053;-72
2022/08/13 13:00:42;;;;;;;4.50;3.90;;;29.80;43.90;;;;;;5023355;28;20056;-72
2022/08/13 13:03:08;;;;;;;8.82;4.30;;;29.80;44.10;;;;;;4970419;28;20077;-73
2022/08/13 13:05:34;;;;;;;5.35;4.40;;;29.70;44.00;;;;;;5018701;28;20387;-74
2022/08/13 13:08:00;;;;;;;4.90;4.30;;;29.70;44.20;;;;;;5043752;28;20050;-72
2022/08/13 13:10:25;;;;;;;5.20;4.50;;;29.90;44.30;;;;;;4994989;28;20053;-72
2022/08/13 13:12:51;;;;;;;7.75;4.55;;;30.20;43.60;;;;;;5019909;28;20049;-71